Date,TemperatureHighF,TemperatureAvgF,TemperatureLowF,DewpointHighF,DewpointAvgF,DewpointLowF,HumidityHigh,HumidityAvg,HumidityLow,PressureMaxIn,PressureMinIn,WindSpeedMaxMPH,WindSpeedAvgMPH,GustSpeedMaxMPH,PrecipitationSumIn
2013-2-1,69.3,60.2,53.2,52.7,46.0,39.5,82,60,38,30.17,30.09,5,1,7,0.00
2013-2-2,69.4,60.4,54.7,55.4,49.1,42.9,79,67,51,30.19,30.09,8,2,9,0.00
2013-2-3,70.7,60.7,53.4,55.8,50.9,45.3,83,71,47,30.13,30.01,10,2,10,0.00
2013-2-4,56.5,51.8,46.3,51.6,48.5,42.9,95,89,76,30.11,30.00,8,1,8,0.00
2013-2-5,55.1,52.0,48.8,50.6,48.7,46.9,95,89,80,30.12,30.00,7,2,9,0.00
2013-2-6,61.2,54.7,49.7,50.2,47.6,45.5,89,77,66,30.12,30.01,7,2,9,0.00
2013-2-7,59.6,52.9,46.7,52.0,46.9,43.0,90,80,70,30.14,30.02,8,2,9,0.00
2013-2-8,53.8,49.6,43.5,48.2,41.6,38.7,86,74,62,30.03,29.91,18,6,20,0.18
2013-2-9,57.5,48.2,40.2,45.1,40.1,36.3,87,74,53,30.12,29.95,10,3,10,0.00
2013-2-10,58.4,50.0,43.0,45.7,41.6,36.8,87,73,59,30.12,30.03,8,3,11,0.05
2013-2-11,58.5,50.0,42.2,48.2,42.5,35.1,86,76,57,30.25,30.07,12,3,12,0.00
2013-2-12,59.0,51.3,43.0,48.4,38.5,29.0,74,62,47,30.35,30.25,8,3,10,0.00
2013-2-13,60.0,52.1,44.1,51.1,42.7,32.8,83,70,55,30.27,30.14,8,2,9,0.00
2013-2-14,62.0,53.7,45.9,53.6,47.1,38.0,90,78,66,30.23,30.06,9,2,10,0.00
2013-2-15,76.0,64.5,51.9,49.3,34.9,19.9,83,36,16,30.17,30.11,13,3,14,0.00
2013-2-16,75.3,66.6,54.2,45.2,26.3,14.2,53,24,12,30.13,29.98,14,4,16,0.00
2013-2-17,60.6,54.8,48.3,51.2,43.0,25.5,82,66,33,30.04,29.94,10,3,10,0.00
2013-2-18,60.4,54.2,50.7,48.4,45.5,41.8,80,72,62,30.07,29.97,11,3,11,0.00
2013-2-19,53.6,50.7,46.5,48.8,42.9,39.4,92,75,62,30.01,29.73,18,6,18,0.29
2013-2-20,56.0,51.5,47.8,42.2,39.0,29.3,76,63,43,30.02,29.73,22,7,23,0.00
2013-2-21,59.9,51.1,46.3,47.5,42.4,37.9,83,72,60,30.10,29.98,12,4,13,0.04
2013-2-22,59.5,51.7,44.1,49.7,43.1,37.2,87,73,61,30.21,30.10,6,2,7,0.00
2013-2-23,59.9,52.5,45.1,50.5,43.0,33.3,86,70,55,30.17,29.94,6,2,8,0.00
2013-2-24,68.5,54.5,45.8,48.0,38.3,6.6,89,62,9,30.21,29.99,18,3,18,0.00
2013-2-25,61.6,52.9,44.9,50.5,33.3,15.3,83,50,22,30.22,30.09,9,3,11,0.00
2013-2-26,59.9,53.4,43.8,50.0,41.6,24.1,77,65,30,30.12,30.00,9,3,9,0.00
2013-2-27,64.9,59.0,51.9,48.0,30.6,16.1,56,35,19,30.26,30.11,9,2,11,0.00
2013-2-28,70.3,60.7,52.2,50.2,30.6,14.4,60,34,18,30.30,30.23,8,2,10,0.00